Time;durP1;ratioP1;P1;durP2;ratioP2;P2;SDS_P1;SDS_P2;PMS_P1;PMS_P2;Temp;Humidity;BMP_temperature;BMP_pressure;BME280_temperature;BME280_humidity;BME280_pressure;Samples;Min_cycle;Max_cycle;Signal;HPM_P1;HPM_P2
2024/02/21 00:00:27;;;;;;;39.37;20.47;;;2.50;99.90;;;;;;4193710;28;20282;-61
2024/02/21 00:02:29;;;;;;;38.83;19.33;;;2.50;99.90;;;;;;4194997;28;20342;-56
2024/02/21 00:04:30;;;;;;;38.03;19.50;;;2.50;99.90;;;;;;4193790;28;20315;-59
2024/02/21 00:06:32;;;;;;;36.70;20.03;;;2.50;99.90;;;;;;4194734;28;20287;-56
2024/02/21 00:08:33;;;;;;;38.00;19.47;;;2.50;99.90;;;;;;4193749;28;20350;-50
2024/02/21 00:10:35;;;;;;;35.17;18.63;;;2.50;99.90;;;;;;4194971;28;20331;-61
2024/02/21 00:12:36;;;;;;;38.33;19.87;;;2.50;99.90;;;;;;4194086;28;20331;-59
2024/02/21 00:14:37;;;;;;;44.87;21.30;;;2.50;99.90;;;;;;4195397;28;20745;-64
2024/02/21 00:16:38;;;;;;;39.67;19.63;;;2.50;99.90;;;;;;4193340;28;20257;-62
2024/02/21 00:18:40;;;;;;;35.20;19.40;;;2.50;99.90;;;;;;4194482;28;21158;-60
2024/02/21 00:20:41;;;;;;;38.33;19.53;;;2.50;99.90;;;;;;4194132;28;20261;-63
2024/02/21 00:22:42;;;;;;;38.30;19.33;;;2.50;99.90;;;;;;4194387;28;20338;-63
2024/02/21 00:24:43;;;;;;;35.27;20.40;;;2.50;99.90;;;;;;4194613;28;20836;-63
2024/02/21 00:26:44;;;;;;;37.83;20.10;;;2.40;99.90;;;;;;4193329;28;20367;-55
2024/02/21 00:28:45;;;;;;;38.67;20.50;;;2.50;99.90;;;;;;4194817;28;20335;-56
2024/02/21 00:30:48;;;;;;;40.00;20.80;;;2.40;99.90;;;;;;4193536;28;20270;-62
2024/02/21 00:32:49;;;;;;;39.97;20.60;;;2.40;99.90;;;;;;4194879;28;20273;-61
2024/02/21 00:34:50;;;;;;;37.10;18.97;;;2.40;99.90;;;;;;4193472;28;20309;-61
2024/02/21 00:36:52;;;;;;;37.77;20.40;;;2.40;99.90;;;;;;4195015;28;20664;-62
2024/02/21 00:38:53;;;;;;;37.27;17.97;;;2.40;99.90;;;;;;4193570;28;20348;-56
2024/02/21 00:40:54;;;;;;;34.33;19.53;;;2.40;99.90;;;;;;4196771;28;20327;-59
2024/02/21 00:42:55;;;;;;;36.97;18.90;;;2.40;99.90;;;;;;4196885;28;20391;-63
2024/02/21 00:44:57;;;;;;;33.73;17.70;;;2.40;99.90;;;;;;4198601;28;20269;-58
2024/02/21 00:46:58;;;;;;;33.13;17.67;;;2.40;99.90;;;;;;4197358;28;20261;-62
2024/02/21 00:48:59;;;;;;;33.23;17.93;;;2.30;99.90;;;;;;4197062;28;20346;-62
2024/02/21 00:51:00;;;;;;;35.00;18.83;;;2.30;99.90;;;;;;4197442;28;20576;-63
2024/02/21 00:53:01;;;;;;;40.27;18.67;;;2.40;99.90;;;;;;4196645;28;20277;-62
2024/02/21 00:55:04;;;;;;;36.43;18.43;;;2.30;99.90;;;;;;4197084;28;20818;-55
2024/02/21 00:57:06;;;;;;;36.60;18.07;;;2.40;99.90;;;;;;4196615;28;20675;-63
2024/02/21 00:59:07;;;;;;;33.67;18.80;;;2.30;99.90;;;;;;4197985;28;20614;-62
2024/02/21 01:01:08;;;;;;;38.23;18.47;;;2.30;99.90;;;;;;4196844;28;20335;-61
2024/02/21 01:03:10;;;;;;;37.97;19.57;;;2.30;99.90;;;;;;4197728;28;20299;-60
2024/02/21 01:05:11;;;;;;;33.93;17.13;;;2.20;99.90;;;;;;4196489;28;20311;-57
2024/02/21 01:07:12;;;;;;;34.47;17.27;;;2.30;99.90;;;;;;4196952;28;20254;-61
2024/02/21 01:09:14;;;;;;;35.13;17.87;;;2.20;99.90;;;;;;4195502;28;20304;-62
2024/02/21 01:11:16;;;;;;;31.33;17.03;;;2.20;99.90;;;;;;4197943;28;20266;-62
2024/02/21 01:13:17;;;;;;;33.50;17.00;;;2.30;99.90;;;;;;4196720;28;20295;-62
2024/02/21 01:15:18;;;;;;;31.77;17.40;;;2.20;99.90;;;;;;4198165;28;20753;-63
2024/02/21 01:17:20;;;;;;;32.13;16.67;;;2.30;99.90;;;;;;4196023;28;20675;-64
2024/02/21 01:19:21;;;;;;;29.97;16.10;;;2.40;99.90;;;;;;4196942;28;20285;-63
2024/02/21 01:21:22;;;;;;;33.83;17.50;;;2.40;99.90;;;;;;4196980;28;20258;-63
2024/02/21 01:23:23;;;;;;;31.93;17.07;;;2.40;99.90;;;;;;4196623;28;20266;-59
2024/02/21 01:25:24;;;;;;;33.97;18.43;;;2.50;99.90;;;;;;4197188;28;20676;-60
2024/02/21 01:27:26;;;;;;;31.00;17.40;;;2.50;99.90;;;;;;4196084;28;20331;-60
2024/02/21 01:29:27;;;;;;;32.10;17.33;;;2.50;99.90;;;;;;4197126;28;20800;-57
2024/02/21 01:31:28;;;;;;;35.03;17.30;;;2.50;99.90;;;;;;4195519;28;20253;-61
2024/02/21 01:33:34;;;;;;;29.20;17.33;;;2.50;99.90;;;;;;4197437;28;20339;-61
2024/02/21 01:35:36;;;;;;;38.63;17.97;;;2.50;99.90;;;;;;4196112;28;20274;-62
2024/02/21 01:37:38;;;;;;;33.47;18.13;;;2.60;99.90;;;;;;4197174;28;21192;-59
2024/02/21 01:39:39;;;;;;;38.67;19.63;;;2.60;99.90;;;;;;4195437;28;20350;-58
2024/02/21 01:41:40;;;;;;;35.17;18.20;;;2.60;99.90;;;;;;4197454;28;20323;-61
2024/02/21 01:43:41;;;;;;;36.90;18.00;;;2.60;99.90;;;;;;4196209;28;20327;-61
2024/02/21 01:45:42;;;;;;;35.30;18.47;;;2.60;99.90;;;;;;4196965;28;20323;-62
2024/02/21 01:47:43;;;;;;;32.50;18.43;;;2.60;99.90;;;;;;4196193;28;20827;-59
2024/02/21 01:49:45;;;;;;;35.70;19.27;;;2.70;99.90;;;;;;4196820;28;20250;-60
2024/02/21 01:51:47;;;;;;;34.27;17.80;;;2.70;99.90;;;;;;4195618;28;20335;-58
2024/02/21 01:53:51;;;;;;;36.77;19.03;;;2.70;99.90;;;;;;4196310;28;20826;-62
2024/02/21 01:55:53;;;;;;;34.13;18.87;;;2.60;99.90;;;;;;4196264;28;20264;-57
2024/02/21 01:57:54;;;;;;;30.70;16.80;;;2.60;99.90;;;;;;4196095;28;20722;-59
2024/02/21 01:59:56;;;;;;;34.47;18.80;;;2.70;99.90;;;;;;4196162;28;20328;-58
2024/02/21 02:01:58;;;;;;;35.03;19.53;;;2.70;99.90;;;;;;4195874;28;20607;-60
2024/02/21 02:03:59;;;;;;;34.43;17.70;;;2.70;99.90;;;;;;4196931;28;20319;-57
2024/02/21 02:06:01;;;;;;;34.57;17.93;;;2.70;99.90;;;;;;4195672;28;20274;-56
2024/02/21 02:08:02;;;;;;;41.03;19.33;;;2.70;99.90;;;;;;4196509;28;20277;-61
2024/02/21 02:10:04;;;;;;;34.43;18.53;;;2.70;99.90;;;;;;4194750;28;20319;-61
2024/02/21 02:12:06;;;;;;;38.73;18.27;;;2.80;99.90;;;;;;4196638;28;20258;-58
2024/02/21 02:14:07;;;;;;;33.10;17.93;;;2.80;99.90;;;;;;4195726;28;20599;-59
2024/02/21 02:16:08;;;;;;;33.60;18.93;;;2.70;99.90;;;;;;4196976;28;20766;-60
2024/02/21 02:18:10;;;;;;;36.80;19.20;;;2.80;99.90;;;;;;4195218;28;20273;-61
2024/02/21 02:20:12;;;;;;;34.20;19.20;;;2.70;99.90;;;;;;4196920;28;20323;-60
2024/02/21 02:22:26;;;;;;;35.37;18.07;;;2.70;99.90;;;;;;4195228;28;20319;-60
2024/02/21 02:24:27;;;;;;;39.27;18.63;;;2.70;99.90;;;;;;4196373;28;20261;-61
2024/02/21 02:26:28;;;;;;;35.70;18.90;;;2.60;99.90;;;;;;4193976;28;20269;-61
2024/02/21 02:28:30;;;;;;;39.27;19.60;;;2.60;99.90;;;;;;4195652;28;20715;-61
2024/02/21 02:30:36;;;;;;;40.33;19.93;;;2.50;99.90;;;;;;4195903;28;20796;-59
2024/02/21 02:32:37;;;;;;;39.13;19.33;;;2.50;99.90;;;;;;4195647;28;20262;-62
2024/02/21 02:34:38;;;;;;;37.77;19.50;;;2.50;99.90;;;;;;4195813;28;20289;-61
2024/02/21 02:36:39;;;;;;;38.33;19.10;;;2.40;99.90;;;;;;4195303;28;20350;-60
2024/02/21 02:38:40;;;;;;;37.93;19.80;;;2.40;99.90;;;;;;4195607;28;20287;-60
2024/02/21 02:40:42;;;;;;;40.83;20.60;;;2.40;99.90;;;;;;4195213;28;20322;-59
2024/02/21 02:42:44;;;;;;;34.90;18.53;;;2.40;99.90;;;;;;4196613;28;20261;-63
2024/02/21 02:44:45;;;;;;;34.50;18.80;;;2.30;99.90;;;;;;4194863;28;20266;-59
2024/02/21 02:46:46;;;;;;;37.23;18.77;;;2.30;99.90;;;;;;4196406;28;20335;-62
2024/02/21 02:48:47;;;;;;;33.97;18.23;;;2.30;99.90;;;;;;4194892;28;20283;-60
2024/02/21 02:50:49;;;;;;;34.17;18.70;;;2.30;99.90;;;;;;4195974;28;20269;-61
2024/02/21 02:52:50;;;;;;;30.47;17.30;;;2.30;99.90;;;;;;4195108;28;20277;-59
2024/02/21 02:54:52;;;;;;;35.30;18.33;;;2.40;99.90;;;;;;4195792;28;20281;-59
2024/02/21 02:56:54;;;;;;;36.70;16.73;;;2.40;99.90;;;;;;4194720;28;20253;-62
2024/02/21 02:58:55;;;;;;;34.67;18.37;;;2.40;99.90;;;;;;4195795;28;20322;-60
2024/02/21 03:00:56;;;;;;;37.63;18.90;;;2.40;99.90;;;;;;4195319;28;20269;-62
2024/02/21 03:02:57;;;;;;;35.23;18.37;;;2.40;99.90;;;;;;4194968;28;20317;-62
2024/02/21 03:04:58;;;;;;;34.47;18.67;;;2.40;99.90;;;;;;4195026;28;20375;-61
2024/02/21 03:06:59;;;;;;;34.73;17.67;;;2.50;99.90;;;;;;4194961;28;20291;-58
2024/02/21 03:09:01;;;;;;;35.47;18.33;;;2.40;99.90;;;;;;4195240;28;20301;-61
2024/02/21 03:11:02;;;;;;;35.93;18.20;;;2.50;99.90;;;;;;4193908;28;20802;-59
2024/02/21 03:13:03;;;;;;;33.27;16.90;;;2.50;99.90;;;;;;4195277;28;20277;-59
2024/02/21 03:15:05;;;;;;;33.23;18.17;;;2.50;99.90;;;;;;4194710;28;20262;-61
2024/02/21 03:17:07;;;;;;;29.87;16.47;;;2.50;99.90;;;;;;4195729;28;20668;-62
2024/02/21 03:19:08;;;;;;;32.17;17.00;;;2.50;99.90;;;;;;4192423;28;20327;-58
2024/02/21 03:21:09;;;;;;;32.63;18.33;;;2.60;99.90;;;;;;4195383;28;20314;-60
2024/02/21 03:23:10;;;;;;;31.97;17.53;;;2.60;99.90;;;;;;4194419;28;20283;-61
2024/02/21 03:25:13;;;;;;;34.60;18.47;;;2.60;99.90;;;;;;4195563;28;20277;-62
2024/02/21 03:27:15;;;;;;;35.17;18.90;;;2.60;99.90;;;;;;4193587;28;20269;-62
2024/02/21 03:29:16;;;;;;;34.53;17.73;;;2.60;99.90;;;;;;4195237;28;20289;-61
2024/02/21 03:31:18;;;;;;;29.93;16.87;;;2.60;99.90;;;;;;4194779;28;20322;-61
2024/02/21 03:33:20;;;;;;;29.87;16.60;;;2.50;99.90;;;;;;4194580;28;20323;-60
2024/02/21 03:35:22;;;;;;;31.73;15.93;;;2.50;99.90;;;;;;4194576;28;20347;-57
2024/02/21 03:37:23;;;;;;;32.83;17.80;;;2.50;99.90;;;;;;4194504;28;20730;-62
2024/02/21 03:39:24;;;;;;;31.73;16.97;;;2.40;99.90;;;;;;4194507;28;20273;-62
2024/02/21 03:41:26;;;;;;;29.93;16.57;;;2.30;99.90;;;;;;4193786;28;20327;-61
2024/02/21 03:43:27;;;;;;;28.80;16.63;;;2.30;99.90;;;;;;4194872;28;20273;-61
2024/02/21 03:45:29;;;;;;;31.60;17.07;;;2.20;99.90;;;;;;4194760;28;20269;-62
2024/02/21 03:47:30;;;;;;;35.27;18.03;;;2.30;99.90;;;;;;4195267;28;20315;-62
2024/02/21 03:49:31;;;;;;;30.03;16.17;;;2.30;99.90;;;;;;4194177;28;20293;-62
2024/02/21 03:51:33;;;;;;;33.80;18.20;;;2.20;99.90;;;;;;4195067;28;20319;-63
2024/02/21 03:53:34;;;;;;;28.60;16.70;;;2.20;99.90;;;;;;4193667;28;20265;-61
2024/02/21 03:55:35;;;;;;;32.07;16.87;;;2.20;99.90;;;;;;4195179;28;20272;-54
2024/02/21 03:57:36;;;;;;;32.83;16.70;;;2.10;99.90;;;;;;4193868;28;20265;-60
2024/02/21 03:59:39;;;;;;;29.90;17.57;;;2.10;99.90;;;;;;4194936;28;20960;-63
2024/02/21 04:01:41;;;;;;;33.50;17.13;;;2.10;99.90;;;;;;4193592;28;20323;-63
2024/02/21 04:03:44;;;;;;;33.43;18.43;;;2.10;99.90;;;;;;4194528;28;20277;-63
2024/02/21 04:05:45;;;;;;;36.23;17.43;;;2.00;99.90;;;;;;4194012;28;20261;-56
2024/02/21 04:07:46;;;;;;;32.13;17.10;;;1.90;99.90;;;;;;4194205;28;20303;-62
2024/02/21 04:09:48;;;;;;;32.90;16.57;;;1.90;99.90;;;;;;4194208;28;20311;-62
2024/02/21 04:11:49;;;;;;;40.27;20.43;;;1.90;99.90;;;;;;4194077;28;20830;-63
2024/02/21 04:13:51;;;;;;;42.00;22.70;;;1.90;99.90;;;;;;4194223;28;20340;-62
2024/02/21 04:15:52;;;;;;;46.90;22.47;;;1.80;99.90;;;;;;4193776;28;20626;-61
2024/02/21 04:17:53;;;;;;;51.07;25.67;;;1.80;99.90;;;;;;4195024;28;20318;-58
2024/02/21 04:20:05;;;;;;;43.67;24.00;;;1.70;99.90;;;;;;4192705;28;20273;-57
2024/02/21 04:22:06;;;;;;;48.90;25.50;;;1.70;99.90;;;;;;4194387;28;20700;-61
2024/02/21 04:24:07;;;;;;;43.57;24.53;;;1.70;99.90;;;;;;4193668;28;20335;-62
2024/02/21 04:26:08;;;;;;;38.63;22.30;;;1.70;99.90;;;;;;4194005;28;20289;-61
2024/02/21 04:28:10;;;;;;;44.43;23.87;;;1.70;99.90;;;;;;4193431;28;20445;-58
2024/02/21 04:30:11;;;;;;;41.33;22.20;;;1.70;99.90;;;;;;4193953;28;20312;-61
2024/02/21 04:32:12;;;;;;;43.60;23.77;;;1.70;99.90;;;;;;4193363;28;21036;-60
2024/02/21 04:34:13;;;;;;;51.07;25.30;;;1.70;99.90;;;;;;4192228;28;20281;-62
2024/02/21 04:36:17;;;;;;;47.10;25.50;;;1.70;99.90;;;;;;4192985;28;20743;-60
2024/02/21 04:38:18;;;;;;;48.33;26.57;;;1.70;99.90;;;;;;4194046;28;20346;-62
2024/02/21 04:40:19;;;;;;;51.47;27.47;;;1.70;99.90;;;;;;4193846;28;20672;-62
2024/02/21 04:42:20;;;;;;;44.70;25.27;;;1.70;99.90;;;;;;4193601;28;20261;-62
2024/02/21 04:44:22;;;;;;;45.87;23.73;;;1.70;99.90;;;;;;4193340;28;20269;-61
2024/02/21 04:46:23;;;;;;;42.43;24.30;;;1.70;99.90;;;;;;4193808;28;20307;-61
2024/02/21 04:48:24;;;;;;;41.80;23.83;;;1.70;99.90;;;;;;4194370;28;20327;-63
2024/02/21 04:50:26;;;;;;;42.30;22.27;;;1.70;99.90;;;;;;4192974;28;20292;-58
2024/02/21 04:52:27;;;;;;;47.47;22.57;;;1.70;99.90;;;;;;4194567;28;20327;-62
2024/02/21 04:54:28;;;;;;;41.47;22.30;;;1.70;99.90;;;;;;4192805;28;20269;-59
2024/02/21 04:56:29;;;;;;;43.87;24.00;;;1.70;99.90;;;;;;4194476;28;20262;-61
2024/02/21 04:58:30;;;;;;;47.27;22.97;;;1.80;99.90;;;;;;4193405;28;20295;-59
2024/02/21 05:00:32;;;;;;;39.43;21.90;;;1.80;99.90;;;;;;4194512;28;20334;-61
2024/02/21 05:02:33;;;;;;;36.30;19.63;;;1.90;99.90;;;;;;4193155;28;20660;-61
2024/02/21 05:04:34;;;;;;;46.40;22.07;;;1.90;99.90;;;;;;4194086;28;20265;-64
2024/02/21 05:06:41;;;;;;;37.87;20.77;;;1.90;99.90;;;;;;4192774;28;20631;-62
2024/02/21 05:08:43;;;;;;;43.47;22.57;;;1.90;99.90;;;;;;4192220;28;20774;-63
2024/02/21 05:10:44;;;;;;;36.50;20.53;;;2.00;99.90;;;;;;4193689;28;20694;-64
2024/02/21 05:12:45;;;;;;;42.80;21.27;;;2.00;99.90;;;;;;4192869;28;20297;-63
2024/02/21 05:14:47;;;;;;;42.10;21.57;;;2.00;99.90;;;;;;4194210;28;20261;-63
2024/02/21 05:16:48;;;;;;;55.03;22.20;;;2.00;99.90;;;;;;4193605;28;20335;-64
2024/02/21 05:18:49;;;;;;;38.57;21.67;;;2.10;99.90;;;;;;4193982;28;20303;-61
2024/02/21 05:20:50;;;;;;;42.63;21.13;;;2.10;99.90;;;;;;4192921;28;20257;-58
2024/02/21 05:22:52;;;;;;;44.90;22.63;;;2.10;99.90;;;;;;4194294;28;20664;-62
2024/02/21 05:24:53;;;;;;;39.07;21.87;;;2.10;99.90;;;;;;4192261;28;20270;-59
2024/02/21 05:26:54;;;;;;;49.37;23.10;;;2.10;99.90;;;;;;4194445;28;20315;-57
2024/02/21 05:28:55;;;;;;;53.63;24.90;;;2.10;99.90;;;;;;4196343;28;20327;-55
2024/02/21 05:30:56;;;;;;;53.17;23.63;;;2.10;99.90;;;;;;4196861;28;20261;-60
2024/02/21 05:32:58;;;;;;;47.13;22.53;;;2.10;99.90;;;;;;4195552;28;20265;-63
2024/02/21 05:34:59;;;;;;;53.03;25.53;;;2.20;99.90;;;;;;4197128;28;20334;-62
2024/02/21 05:37:00;;;;;;;51.87;24.37;;;2.10;99.90;;;;;;4195787;28;20254;-58
2024/02/21 05:39:02;;;;;;;42.03;22.63;;;2.20;99.90;;;;;;4197092;28;20335;-64
2024/02/21 05:41:03;;;;;;;42.67;22.70;;;2.20;99.90;;;;;;4196104;28;20284;-63
2024/02/21 05:43:05;;;;;;;57.47;27.30;;;2.20;99.90;;;;;;4196516;28;20798;-64
2024/02/21 05:45:06;;;;;;;66.23;29.57;;;2.20;99.90;;;;;;4196768;28;20595;-64
2024/02/21 05:47:09;;;;;;;58.10;24.17;;;2.20;99.90;;;;;;4196395;28;20269;-63
2024/02/21 05:49:11;;;;;;;65.23;27.27;;;2.20;99.90;;;;;;4195094;28;20293;-61
2024/02/21 05:51:12;;;;;;;51.00;25.90;;;2.20;99.90;;;;;;4195356;28;20264;-63
2024/02/21 05:53:13;;;;;;;56.37;30.00;;;2.30;99.90;;;;;;4196814;28;20307;-62
2024/02/21 05:55:14;;;;;;;56.43;29.60;;;2.20;99.90;;;;;;4195261;28;20387;-59
2024/02/21 05:57:20;;;;;;;48.23;25.27;;;2.20;99.90;;;;;;4196264;28;20323;-57
2024/02/21 05:59:21;;;;;;;50.13;25.77;;;2.20;99.90;;;;;;4195591;28;20266;-60
2024/02/21 06:01:22;;;;;;;49.03;25.20;;;2.20;99.90;;;;;;4195561;28;20250;-61
2024/02/21 06:03:23;;;;;;;43.43;24.10;;;2.30;99.90;;;;;;4195367;28;20257;-64
2024/02/21 06:05:24;;;;;;;38.03;20.67;;;2.30;99.90;;;;;;4196463;28;20262;-61
2024/02/21 06:07:26;;;;;;;40.60;21.90;;;2.30;99.90;;;;;;4195337;28;20269;-62
2024/02/21 06:09:28;;;;;;;46.07;23.20;;;2.30;99.90;;;;;;4196506;28;20285;-61
2024/02/21 06:11:29;;;;;;;47.73;24.33;;;2.30;99.90;;;;;;4195579;28;20704;-63
2024/02/21 06:13:30;;;;;;;47.30;23.53;;;2.30;99.90;;;;;;4195270;28;20265;-56
2024/02/21 06:15:31;;;;;;;41.50;22.83;;;2.30;99.90;;;;;;4195881;28;20265;-61
2024/02/21 06:17:33;;;;;;;48.77;24.37;;;2.30;99.90;;;;;;4195426;28;20319;-55
2024/02/21 06:19:34;;;;;;;44.60;23.97;;;2.30;99.90;;;;;;4195136;28;20289;-60
2024/02/21 06:21:35;;;;;;;51.83;25.53;;;2.20;99.90;;;;;;4194157;28;20795;-62
2024/02/21 06:23:37;;;;;;;37.63;22.17;;;2.30;99.90;;;;;;4195400;28;20254;-60
2024/02/21 06:25:39;;;;;;;48.53;20.97;;;2.30;99.90;;;;;;4193471;28;20270;-62
2024/02/21 06:27:40;;;;;;;45.90;21.37;;;2.20;99.90;;;;;;4196427;28;20615;-61
2024/02/21 06:29:41;;;;;;;49.50;23.50;;;2.20;99.90;;;;;;4195199;28;20289;-60
2024/02/21 06:31:43;;;;;;;41.73;21.80;;;2.20;99.90;;;;;;4196352;28;20331;-60
2024/02/21 06:33:44;;;;;;;40.60;21.37;;;2.20;99.90;;;;;;4195218;28;20285;-61
2024/02/21 06:35:47;;;;;;;40.70;21.57;;;2.20;99.90;;;;;;4196261;28;20281;-63
2024/02/21 06:37:51;;;;;;;39.53;22.47;;;2.20;99.90;;;;;;4195107;28;20676;-62
2024/02/21 06:39:52;;;;;;;42.47;22.30;;;2.20;99.90;;;;;;4196007;28;20257;-59
2024/02/21 06:41:53;;;;;;;42.67;23.20;;;2.30;99.90;;;;;;4194958;28;20258;-62
2024/02/21 06:43:54;;;;;;;44.90;23.97;;;2.40;99.90;;;;;;4195785;28;20250;-62
2024/02/21 06:45:56;;;;;;;42.63;23.57;;;2.50;99.90;;;;;;4195368;28;20265;-63
2024/02/21 06:47:58;;;;;;;44.20;22.43;;;2.50;99.90;;;;;;4195214;28;20622;-62
2024/02/21 06:49:59;;;;;;;43.03;22.63;;;2.50;99.90;;;;;;4194961;28;20289;-62
2024/02/21 06:52:00;;;;;;;45.13;24.53;;;2.50;99.90;;;;;;4194652;28;20794;-63
2024/02/21 06:54:01;;;;;;;41.33;22.13;;;2.50;99.90;;;;;;4195760;28;20261;-63
2024/02/21 06:56:03;;;;;;;40.60;22.27;;;2.50;99.90;;;;;;4194704;28;20342;-62
2024/02/21 06:58:04;;;;;;;36.57;21.60;;;2.50;99.90;;;;;;4195195;28;20265;-61
2024/02/21 07:00:08;;;;;;;43.80;22.97;;;2.40;99.90;;;;;;4194701;28;20610;-61
2024/02/21 07:02:09;;;;;;;44.13;22.63;;;2.50;99.90;;;;;;4195699;28;20249;-61
2024/02/21 07:04:10;;;;;;;41.10;21.67;;;2.60;99.90;;;;;;4194395;28;20277;-61
2024/02/21 07:06:12;;;;;;;40.63;22.00;;;2.60;99.90;;;;;;4195730;28;20273;-62
2024/02/21 07:08:13;;;;;;;40.70;22.83;;;2.60;99.90;;;;;;4194448;28;20426;-62
2024/02/21 07:10:14;;;;;;;42.40;22.33;;;2.70;99.90;;;;;;4195060;28;20351;-61
2024/02/21 07:12:16;;;;;;;42.60;21.33;;;2.70;99.90;;;;;;4194490;28;20270;-62
2024/02/21 07:14:18;;;;;;;41.93;22.10;;;2.70;99.90;;;;;;4195519;28;20295;-55
2024/02/21 07:16:19;;;;;;;39.20;20.57;;;2.80;99.90;;;;;;4194327;28;20277;-56
2024/02/21 07:18:21;;;;;;;40.47;21.17;;;2.80;99.90;;;;;;4195135;28;20262;-57
2024/02/21 07:20:22;;;;;;;39.83;21.60;;;2.80;99.90;;;;;;4194709;28;20323;-60
2024/02/21 07:22:23;;;;;;;42.33;22.20;;;2.80;99.90;;;;;;4194428;28;20388;-55
2024/02/21 07:24:25;;;;;;;39.30;22.47;;;2.90;99.90;;;;;;4194651;28;20274;-61
2024/02/21 07:26:26;;;;;;;36.87;22.47;;;3.00;99.90;;;;;;4193966;28;20265;-60
2024/02/21 07:28:27;;;;;;;37.10;20.43;;;3.10;99.90;;;;;;4195234;28;20274;-62
2024/02/21 07:30:29;;;;;;;38.20;20.37;;;3.10;99.90;;;;;;4194085;28;20354;-61
2024/02/21 07:32:30;;;;;;;37.47;20.43;;;3.20;99.90;;;;;;4195360;28;20269;-61
2024/02/21 07:34:31;;;;;;;41.37;20.67;;;3.20;99.90;;;;;;4193929;28;20285;-62
2024/02/21 07:36:32;;;;;;;38.10;19.33;;;3.30;99.90;;;;;;4195457;28;20273;-61
2024/02/21 07:38:34;;;;;;;40.33;20.60;;;3.40;99.90;;;;;;4194034;28;20328;-62
2024/02/21 07:40:35;;;;;;;36.03;18.63;;;3.40;99.90;;;;;;4194951;28;20664;-62
2024/02/21 07:42:36;;;;;;;31.80;18.20;;;3.50;99.90;;;;;;4194056;28;20299;-56
2024/02/21 07:44:38;;;;;;;36.40;21.80;;;3.50;99.90;;;;;;4194984;28;20763;-57
2024/02/21 07:46:39;;;;;;;32.00;19.07;;;3.50;99.90;;;;;;4194534;28;20273;-57
2024/02/21 07:48:40;;;;;;;34.27;19.17;;;3.40;99.90;;;;;;4194732;28;20732;-56
2024/02/21 07:50:41;;;;;;;30.87;18.80;;;3.40;99.90;;;;;;4193842;28;20343;-59
2024/02/21 07:52:43;;;;;;;30.80;17.90;;;3.40;99.90;;;;;;4194074;28;20257;-62
2024/02/21 07:54:44;;;;;;;31.83;17.83;;;3.40;99.90;;;;;;4194640;28;20266;-61
2024/02/21 07:56:47;;;;;;;28.90;16.90;;;3.40;99.90;;;;;;4193684;28;20273;-59
2024/02/21 07:58:48;;;;;;;38.20;17.53;;;3.40;99.90;;;;;;4194717;28;20277;-57
2024/02/21 08:00:50;;;;;;;31.33;16.80;;;3.50;99.90;;;;;;4193766;28;20270;-60
2024/02/21 08:02:51;;;;;;;29.63;15.23;;;3.50;99.90;;;;;;4195142;28;20331;-61
2024/02/21 08:04:52;;;;;;;30.20;15.73;;;3.50;99.90;;;;;;4193768;28;20269;-62
2024/02/21 08:07:01;;;;;;;31.37;16.43;;;3.50;99.90;;;;;;4194925;28;20303;-59
2024/02/21 08:09:02;;;;;;;26.37;16.23;;;3.50;99.90;;;;;;4193730;28;20282;-60
2024/02/21 08:11:04;;;;;;;24.63;15.20;;;3.50;99.90;;;;;;4194634;28;20285;-60
2024/02/21 08:13:05;;;;;;;23.77;15.10;;;3.60;99.90;;;;;;4193500;28;20760;-61
2024/02/21 08:15:10;;;;;;;29.13;16.47;;;3.60;99.90;;;;;;4194457;28;20278;-61
2024/02/21 08:17:11;;;;;;;27.93;15.97;;;3.70;99.90;;;;;;4193967;28;20347;-58
2024/02/21 08:19:12;;;;;;;23.93;15.83;;;3.70;99.90;;;;;;4194514;28;20330;-62
2024/02/21 08:21:14;;;;;;;32.50;16.80;;;3.80;99.90;;;;;;4193580;28;20310;-58
2024/02/21 08:23:19;;;;;;;28.20;15.67;;;3.90;99.90;;;;;;4193876;28;20319;-61
2024/02/21 08:25:20;;;;;;;28.37;15.83;;;3.90;99.90;;;;;;4193559;28;20323;-59
2024/02/21 08:27:21;;;;;;;26.87;16.17;;;4.00;99.90;;;;;;4193838;28;20327;-57
2024/02/21 08:29:22;;;;;;;25.10;15.10;;;4.00;99.90;;;;;;4193940;28;20726;-64
2024/02/21 08:31:28;;;;;;;26.40;14.83;;;4.00;99.90;;;;;;4193449;28;20319;-63
2024/02/21 08:33:29;;;;;;;28.60;15.53;;;4.00;99.90;;;;;;4194009;28;20289;-62
2024/02/21 08:35:31;;;;;;;29.53;16.03;;;4.00;99.90;;;;;;4193226;28;20334;-58
2024/02/21 08:37:32;;;;;;;26.60;16.07;;;4.10;99.90;;;;;;4194380;28;20348;-59
2024/02/21 08:39:33;;;;;;;27.87;15.60;;;4.10;99.90;;;;;;4193155;28;20269;-55
2024/02/21 08:41:34;;;;;;;28.23;15.57;;;4.10;99.90;;;;;;4194648;28;20619;-58
2024/02/21 08:43:36;;;;;;;28.13;15.27;;;4.00;99.90;;;;;;4193168;28;20338;-61
2024/02/21 08:45:37;;;;;;;27.20;15.77;;;4.10;99.90;;;;;;4194685;28;20360;-61
2024/02/21 08:47:42;;;;;;;28.10;16.87;;;4.10;99.90;;;;;;4193619;28;20878;-61
2024/02/21 08:49:43;;;;;;;31.47;16.50;;;4.10;99.90;;;;;;4194286;28;20273;-62
2024/02/21 08:51:46;;;;;;;30.37;17.07;;;4.20;99.90;;;;;;4193120;28;20331;-59
2024/02/21 08:53:48;;;;;;;29.07;16.20;;;4.20;99.90;;;;;;4193986;28;20351;-59
2024/02/21 08:55:49;;;;;;;31.43;17.37;;;4.20;99.90;;;;;;4193529;28;20281;-60
2024/02/21 08:57:50;;;;;;;30.23;16.07;;;4.20;99.90;;;;;;4194038;28;20330;-61
2024/02/21 08:59:52;;;;;;;28.37;15.87;;;4.30;99.90;;;;;;4193388;28;20331;-62
2024/02/21 09:01:53;;;;;;;27.60;16.10;;;4.30;99.90;;;;;;4195980;28;20711;-59
2024/02/21 09:03:56;;;;;;;27.03;15.73;;;4.40;99.90;;;;;;4197383;28;20285;-58
2024/02/21 09:05:58;;;;;;;28.00;16.40;;;4.40;99.90;;;;;;4196301;28;20347;-60
2024/02/21 09:07:59;;;;;;;25.07;15.93;;;4.40;99.90;;;;;;4197685;28;20339;-62
2024/02/21 09:10:00;;;;;;;32.20;17.70;;;4.50;99.90;;;;;;4195912;28;20297;-63
2024/02/21 09:12:05;;;;;;;26.53;15.27;;;4.50;99.90;;;;;;4197601;28;20326;-62
2024/02/21 09:14:07;;;;;;;29.97;17.57;;;4.40;99.90;;;;;;4196337;28;20327;-61
2024/02/21 09:16:09;;;;;;;27.57;15.87;;;4.50;99.90;;;;;;4197663;28;20385;-60
2024/02/21 09:18:10;;;;;;;30.57;17.03;;;4.60;99.90;;;;;;4196576;28;20342;-62
2024/02/21 09:20:11;;;;;;;33.20;15.70;;;4.70;99.90;;;;;;4197407;28;20269;-60
2024/02/21 09:22:13;;;;;;;25.83;15.83;;;4.70;99.90;;;;;;4196402;28;20269;-60
2024/02/21 09:24:14;;;;;;;26.53;15.50;;;4.80;99.90;;;;;;4197239;28;20828;-61
2024/02/21 09:26:16;;;;;;;28.67;16.10;;;4.80;99.90;;;;;;4195993;28;20261;-55
2024/02/21 09:28:18;;;;;;;29.73;15.70;;;4.90;99.90;;;;;;4196462;28;20086;-62
2024/02/21 09:30:20;;;;;;;28.17;15.43;;;4.90;99.90;;;;;;4196116;28;20296;-60
2024/02/21 09:32:21;;;;;;;25.97;15.53;;;4.90;99.90;;;;;;4196563;28;20112;-57
2024/02/21 09:34:22;;;;;;;31.37;15.73;;;5.00;99.90;;;;;;4196280;28;20278;-62
2024/02/21 09:36:24;;;;;;;26.30;15.03;;;5.00;99.90;;;;;;4194630;28;20261;-62
2024/02/21 09:38:25;;;;;;;26.37;16.10;;;5.00;99.90;;;;;;4196459;28;20044;-60
2024/02/21 09:40:27;;;;;;;24.57;13.90;;;5.00;99.90;;;;;;4195538;28;20269;-62
2024/02/21 09:42:39;;;;;;;24.03;13.67;;;5.10;99.90;;;;;;4196943;28;20299;-56
2024/02/21 09:44:40;;;;;;;29.77;15.07;;;5.10;99.90;;;;;;4195610;28;20074;-61
2024/02/21 09:46:56;;;;;;;30.50;16.00;;;5.10;99.90;;;;;;4197044;28;20060;-62
2024/02/21 09:49:24;;;;;;;26.83;15.57;;;5.20;99.90;;;;;;4195534;28;20354;-61
2024/02/21 09:51:28;;;;;;;24.70;14.40;;;5.20;99.90;;;;;;4196398;28;20090;-61
2024/02/21 09:53:32;;;;;;;24.70;13.93;;;5.30;99.90;;;;;;4195642;28;20784;-58
2024/02/21 09:55:34;;;;;;;32.43;14.60;;;5.30;99.90;;;;;;4196532;28;20040;-54
2024/02/21 09:57:36;;;;;;;26.00;14.47;;;5.30;99.90;;;;;;4195854;28;20040;-59
2024/02/21 09:59:39;;;;;;;26.90;14.37;;;5.40;99.90;;;;;;4196558;28;20109;-58
2024/02/21 10:01:40;;;;;;;25.33;15.00;;;5.60;99.90;;;;;;4195281;28;20102;-56
2024/02/21 10:03:43;;;;;;;25.33;14.50;;;5.70;99.90;;;;;;4196508;28;20427;-61
2024/02/21 10:05:49;;;;;;;22.83;13.57;;;5.70;99.90;;;;;;4195438;28;20036;-60
2024/02/21 10:07:51;;;;;;;25.73;15.23;;;5.80;99.90;;;;;;4196165;28;20090;-63
2024/02/21 10:10:03;;;;;;;28.20;16.33;;;5.80;99.90;;;;;;4195224;28;20036;-63
2024/02/21 10:12:09;;;;;;;37.20;18.63;;;5.80;99.90;;;;;;4196005;28;20050;-60
2024/02/21 10:14:10;;;;;;;30.83;17.17;;;5.90;99.90;;;;;;4194923;28;20098;-56
2024/02/21 10:16:12;;;;;;;27.57;16.97;;;5.90;99.90;;;;;;4196527;28;20040;-62
2024/02/21 10:18:18;;;;;;;26.60;15.23;;;6.00;99.90;;;;;;4195947;28;20065;-61
2024/02/21 10:20:19;;;;;;;28.87;16.37;;;6.00;99.90;;;;;;4196256;28;20041;-62
2024/02/21 10:22:20;;;;;;;25.20;14.47;;;6.10;99.90;;;;;;4195100;28;20078;-61
2024/02/21 10:24:28;;;;;;;24.33;13.67;;;6.10;99.90;;;;;;4195727;28;20427;-62